createdAt,value
2017-01-05T00:00:33.281Z,1010.46
2017-01-05T00:01:42.256Z,1010.47
2017-01-05T00:02:51.234Z,1010.49
2017-01-05T00:04:00.211Z,1010.52
2017-01-05T00:05:09.175Z,1010.54
2017-01-05T00:06:18.162Z,1010.61
2017-01-05T00:07:27.145Z,1010.57
2017-01-05T00:08:36.118Z,1010.6
2017-01-05T00:09:45.097Z,1010.64
2017-01-05T00:10:54.073Z,1010.64
2017-01-05T00:12:03.086Z,1010.64
2017-01-05T00:13:12.064Z,1010.68
2017-01-05T00:14:21.070Z,1010.68
2017-01-05T00:15:30.050Z,1010.68
2017-01-05T00:16:39.025Z,1010.71
2017-01-05T00:17:48.005Z,1010.74
2017-01-05T00:18:56.981Z,1010.75
2017-01-05T00:20:05.962Z,1010.75
2017-01-05T00:21:14.945Z,1010.75
2017-01-05T00:22:23.919Z,1010.83
2017-01-05T00:23:32.894Z,1010.85
2017-01-05T00:24:41.861Z,1010.88
2017-01-05T00:25:50.899Z,1010.91
2017-01-05T00:26:59.865Z,1010.94
2017-01-05T00:28:08.851Z,1010.98
2017-01-05T00:29:17.823Z,1011.01
2017-01-05T00:30:26.807Z,1011.06
2017-01-05T00:31:35.785Z,1011.07
2017-01-05T00:32:44.758Z,1011.06
2017-01-05T00:33:53.769Z,1011.13
2017-01-05T00:35:02.749Z,1011.16
2017-01-05T00:36:11.729Z,1011.2
2017-01-05T00:37:20.698Z,1011.21
2017-01-05T00:38:29.708Z,1011.23
2017-01-05T00:39:38.714Z,1011.27
2017-01-05T00:40:47.686Z,1011.28
2017-01-05T00:41:56.690Z,1011.33
2017-01-05T00:43:05.667Z,1011.35
2017-01-05T00:44:14.643Z,1011.42
2017-01-05T00:45:24.064Z,1011.4
2017-01-05T00:46:33.036Z,1011.45
2017-01-05T00:47:42.016Z,1011.55
2017-01-05T00:48:50.991Z,1011.55
2017-01-05T00:49:59.963Z,1011.6
2017-01-05T00:51:08.939Z,1011.63
2017-01-05T00:52:17.922Z,1011.68
2017-01-05T00:53:26.893Z,1011.71
2017-01-05T00:54:35.877Z,1011.73
2017-01-05T00:55:44.850Z,1011.72
2017-01-05T00:56:53.835Z,1011.74
2017-01-05T00:58:02.798Z,1011.72
2017-01-05T00:59:11.774Z,1011.76
2017-01-05T01:00:20.746Z,1011.74
2017-01-05T01:01:29.773Z,1011.79
2017-01-05T01:02:38.785Z,1011.84
2017-01-05T01:03:47.764Z,1011.87
2017-01-05T01:04:56.745Z,1011.88
2017-01-05T01:06:05.721Z,1011.86
2017-01-05T01:07:14.705Z,1011.93
2017-01-05T01:08:23.670Z,1012.01
2017-01-05T01:09:32.639Z,1011.99
2017-01-05T01:10:41.620Z,1011.99
2017-01-05T01:11:50.599Z,1012.04
2017-01-05T01:12:59.588Z,1012.09
2017-01-05T01:14:08.580Z,1012.06
2017-01-05T01:15:17.690Z,1012.09
2017-01-05T01:16:26.656Z,1012.14
2017-01-05T01:17:35.667Z,1012.17
2017-01-05T01:18:44.651Z,1012.2
2017-01-05T01:19:53.621Z,1012.26
2017-01-05T01:21:02.593Z,1012.32
2017-01-05T01:22:11.568Z,1012.39
2017-01-05T01:23:20.545Z,1012.41
2017-01-05T01:24:29.525Z,1012.43
2017-01-05T01:25:38.499Z,1012.48
2017-01-05T01:26:47.476Z,1012.5
2017-01-05T01:27:56.454Z,1012.54
2017-01-05T01:29:05.430Z,1012.58
2017-01-05T01:30:14.402Z,1012.57
2017-01-05T01:31:23.384Z,1012.66
2017-01-05T01:32:32.356Z,1012.66
2017-01-05T01:33:41.339Z,1012.69
2017-01-05T01:34:50.315Z,1012.69
2017-01-05T01:35:59.288Z,1012.75
2017-01-05T01:37:08.267Z,1012.75
2017-01-05T01:38:17.233Z,1012.76
2017-01-05T01:39:26.197Z,1012.81
2017-01-05T01:40:35.181Z,1012.83
2017-01-05T01:41:44.141Z,1012.86
2017-01-05T01:42:53.113Z,1012.92
2017-01-05T01:44:02.085Z,1012.9
2017-01-05T01:45:11.054Z,1012.98
2017-01-05T01:46:20.016Z,1012.99
2017-01-05T01:47:29.004Z,1013.03
2017-01-05T01:48:37.967Z,1013.05
2017-01-05T01:49:46.955Z,1013.07
2017-01-05T01:50:55.925Z,1013.07
2017-01-05T01:52:04.891Z,1013.12
2017-01-05T01:53:13.871Z,1013.14
2017-01-05T01:54:22.858Z,1013.11
2017-01-05T01:55:31.829Z,1013.17
2017-01-05T01:56:40.807Z,1013.22
2017-01-05T01:57:49.791Z,1013.22
2017-01-05T01:58:58.757Z,1013.18
2017-01-05T02:00:07.736Z,1013.23
2017-01-05T02:01:16.721Z,1013.19
2017-01-05T02:02:25.688Z,1013.25
2017-01-05T02:03:34.663Z,1013.24
2017-01-05T02:04:43.631Z,1013.28
2017-01-05T02:05:52.608Z,1013.32
2017-01-05T02:07:01.573Z,1013.31
2017-01-05T02:08:10.550Z,1013.37
2017-01-05T02:09:19.526Z,1013.41
2017-01-05T02:10:28.504Z,1013.39
2017-01-05T02:11:37.482Z,1013.44
2017-01-05T02:12:46.454Z,1013.45
2017-01-05T02:13:55.429Z,1013.49
2017-01-05T02:15:04.396Z,1013.5
2017-01-05T02:16:13.376Z,1013.55
2017-01-05T02:17:22.338Z,1013.55
2017-01-05T02:18:31.318Z,1013.57
2017-01-05T02:19:40.296Z,1013.61
2017-01-05T02:20:49.264Z,1013.61
2017-01-05T02:21:58.260Z,1013.67
2017-01-05T02:23:07.231Z,1013.74
2017-01-05T02:24:16.201Z,1013.77
2017-01-05T02:25:25.186Z,1013.8
2017-01-05T02:26:34.162Z,1013.81
2017-01-05T02:27:43.134Z,1013.83
2017-01-05T02:28:52.117Z,1013.82
2017-01-05T02:30:01.106Z,1013.8
2017-01-05T02:31:10.073Z,1013.79
2017-01-05T02:32:19.057Z,1013.86
2017-01-05T02:33:28.066Z,1013.85
2017-01-05T02:34:37.050Z,1013.86
2017-01-05T02:35:46.025Z,1013.92
2017-01-05T02:36:54.996Z,1013.99
2017-01-05T02:38:03.989Z,1014
2017-01-05T02:39:12.965Z,1014.01
2017-01-05T02:40:21.970Z,1014.02
2017-01-05T02:41:30.938Z,1014.04
2017-01-05T02:42:39.929Z,1014.07
2017-01-05T02:43:48.915Z,1014.1
2017-01-05T02:44:57.897Z,1014.17
2017-01-05T02:46:06.876Z,1014.17
2017-01-05T02:47:15.857Z,1014.18
2017-01-05T02:48:24.815Z,1014.18
2017-01-05T02:49:33.793Z,1014.24
2017-01-05T02:50:42.785Z,1014.25
2017-01-05T02:51:51.764Z,1014.3
2017-01-05T02:53:00.734Z,1014.31
2017-01-05T02:54:09.700Z,1014.36
2017-01-05T02:55:18.672Z,1014.38
2017-01-05T02:56:27.647Z,1014.42
2017-01-05T02:57:36.627Z,1014.47
2017-01-05T02:58:45.604Z,1014.48
2017-01-05T02:59:54.567Z,1014.58
2017-01-05T03:01:03.547Z,1014.54
2017-01-05T03:02:12.514Z,1014.61
2017-01-05T03:03:21.498Z,1014.62
2017-01-05T03:04:30.476Z,1014.66
2017-01-05T03:05:39.454Z,1014.72
2017-01-05T03:06:48.432Z,1014.69
2017-01-05T03:07:57.414Z,1014.75
2017-01-05T03:09:06.385Z,1014.7
2017-01-05T03:10:15.366Z,1014.72
2017-01-05T03:11:24.350Z,1014.72
2017-01-05T03:12:33.315Z,1014.72
2017-01-05T03:13:42.325Z,1014.75
2017-01-05T03:14:51.306Z,1014.76
2017-01-05T03:16:00.278Z,1014.78
2017-01-05T03:17:09.250Z,1014.85
2017-01-05T03:18:18.229Z,1014.84
2017-01-05T03:19:27.206Z,1014.85
2017-01-05T03:20:36.181Z,1014.84
2017-01-05T03:21:45.162Z,1014.91
2017-01-05T03:22:54.121Z,1014.93
2017-01-05T03:24:03.089Z,1014.96
2017-01-05T03:25:12.068Z,1014.99
2017-01-05T03:26:21.035Z,1015.06
2017-01-05T03:27:30.041Z,1015.08
2017-01-05T03:28:39.009Z,1015.13
2017-01-05T03:29:47.994Z,1015.16
2017-01-05T03:30:56.960Z,1015.16
2017-01-05T03:32:05.948Z,1015.21
2017-01-05T03:33:14.920Z,1015.2
2017-01-05T03:34:23.899Z,1015.19
2017-01-05T03:35:32.869Z,1015.23
2017-01-05T03:36:41.853Z,1015.25
2017-01-05T03:37:50.836Z,1015.23
2017-01-05T03:38:59.800Z,1015.3
2017-01-05T03:40:08.784Z,1015.34
2017-01-05T03:41:17.755Z,1015.39
2017-01-05T03:42:26.725Z,1015.42
2017-01-05T03:43:35.686Z,1015.4
2017-01-05T03:44:44.664Z,1015.47
2017-01-05T03:45:53.632Z,1015.5
2017-01-05T03:47:02.613Z,1015.53
2017-01-05T03:48:11.587Z,1015.56
2017-01-05T03:49:20.555Z,1015.6
2017-01-05T03:50:29.536Z,1015.62
2017-01-05T03:51:38.517Z,1015.64
2017-01-05T03:52:47.481Z,1015.69
2017-01-05T03:53:56.453Z,1015.69
2017-01-05T03:55:05.425Z,1015.79
2017-01-05T03:56:14.403Z,1015.79
2017-01-05T03:57:23.381Z,1015.81
2017-01-05T03:58:32.370Z,1015.86
2017-01-05T03:59:41.349Z,1015.83
2017-01-05T04:00:50.314Z,1015.85
2017-01-05T04:01:59.297Z,1015.88
2017-01-05T04:03:08.267Z,1015.88
2017-01-05T04:04:17.241Z,1015.87
2017-01-05T04:05:26.239Z,1015.93
2017-01-05T04:06:35.223Z,1015.95
2017-01-05T04:07:44.189Z,1015.98
2017-01-05T04:08:53.170Z,1016
2017-01-05T04:10:02.167Z,1016.06
2017-01-05T04:11:11.138Z,1016.12
2017-01-05T04:12:20.137Z,1016.1
2017-01-05T04:13:29.118Z,1016.15
2017-01-05T04:14:38.100Z,1016.18
2017-01-05T04:15:47.071Z,1016.22
2017-01-05T04:16:56.049Z,1016.26
2017-01-05T04:18:05.012Z,1016.3
2017-01-05T04:19:14.021Z,1016.31
2017-01-05T04:20:23.009Z,1016.36
2017-01-05T04:21:31.975Z,1016.4
2017-01-05T04:22:40.957Z,1016.42
2017-01-05T04:23:49.918Z,1016.46
2017-01-05T04:24:58.893Z,1016.51
2017-01-05T04:26:07.868Z,1016.53
2017-01-05T04:27:16.850Z,1016.54
2017-01-05T04:28:25.828Z,1016.53
2017-01-05T04:29:34.812Z,1016.54
2017-01-05T04:30:43.779Z,1016.55
2017-01-05T04:31:52.750Z,1016.57
2017-01-05T04:33:01.733Z,1016.6
2017-01-05T04:34:10.701Z,1016.58
2017-01-05T04:35:19.677Z,1016.6
2017-01-05T04:36:28.650Z,1016.59
2017-01-05T04:37:37.629Z,1016.61
2017-01-05T04:38:46.589Z,1016.67
2017-01-05T04:39:55.562Z,1016.61
2017-01-05T04:41:04.538Z,1016.67
2017-01-05T04:42:13.499Z,1016.68
2017-01-05T04:43:22.465Z,1016.69
2017-01-05T04:44:31.450Z,1016.72
2017-01-05T04:45:40.416Z,1016.74
2017-01-05T04:46:49.390Z,1016.75
2017-01-05T04:47:58.374Z,1016.73
2017-01-05T04:49:07.341Z,1016.8
2017-01-05T04:50:16.312Z,1016.78
2017-01-05T04:51:25.287Z,1016.78
2017-01-05T04:52:34.253Z,1016.81
2017-01-05T04:53:43.237Z,1016.81
2017-01-05T04:54:52.243Z,1016.86
2017-01-05T04:56:01.211Z,1016.86
2017-01-05T04:57:10.179Z,1016.93
2017-01-05T04:58:19.166Z,1016.96
2017-01-05T04:59:28.137Z,1017.01
2017-01-05T05:00:37.109Z,1017.04
2017-01-05T05:01:46.115Z,1017.1
2017-01-05T05:02:55.074Z,1017.12
2017-01-05T05:04:04.049Z,1017.14
2017-01-05T05:05:13.026Z,1017.15
2017-01-05T05:06:21.999Z,1017.14
2017-01-05T05:07:30.971Z,1017.16
2017-01-05T05:08:39.940Z,1017.22
2017-01-05T05:09:48.924Z,1017.21
2017-01-05T05:10:57.892Z,1017.25
2017-01-05T05:12:06.872Z,1017.25
2017-01-05T05:13:15.850Z,1017.25
2017-01-05T05:14:24.826Z,1017.31
2017-01-05T05:15:33.803Z,1017.34
2017-01-05T05:16:42.774Z,1017.34
2017-01-05T05:17:51.764Z,1017.34
2017-01-05T05:19:00.751Z,1017.38
2017-01-05T05:20:09.733Z,1017.41
2017-01-05T05:21:18.693Z,1017.48
2017-01-05T05:22:27.687Z,1017.5
2017-01-05T05:23:36.653Z,1017.53
2017-01-05T05:24:45.626Z,1017.53
2017-01-05T05:25:54.595Z,1017.59
2017-01-05T05:27:03.578Z,1017.59
2017-01-05T05:28:12.547Z,1017.56
2017-01-05T05:29:21.524Z,1017.62
2017-01-05T05:30:30.490Z,1017.62
2017-01-05T05:31:39.452Z,1017.65
2017-01-05T05:32:48.420Z,1017.66
2017-01-05T05:33:57.387Z,1017.71
2017-01-05T05:35:06.359Z,1017.73
2017-01-05T05:36:15.335Z,1017.77
2017-01-05T05:37:24.303Z,1017.79
2017-01-05T05:38:33.268Z,1017.88
2017-01-05T05:39:42.234Z,1017.83
2017-01-05T05:40:51.211Z,1017.85
2017-01-05T05:42:00.190Z,1017.89
2017-01-05T05:43:09.627Z,1017.84
2017-01-05T05:44:18.636Z,1017.9
2017-01-05T05:45:27.771Z,1017.93
2017-01-05T05:46:36.751Z,1017.94
2017-01-05T05:47:45.751Z,1018.01
2017-01-05T05:48:54.775Z,1018.01
2017-01-05T05:50:03.746Z,1018.05
2017-01-05T05:51:12.727Z,1018.07
2017-01-05T05:52:21.705Z,1018.11
2017-01-05T05:53:30.703Z,1018.07
2017-01-05T05:54:39.674Z,1018.12
2017-01-05T05:55:48.649Z,1018.13
2017-01-05T05:56:57.627Z,1018.18
2017-01-05T05:58:06.612Z,1018.26
2017-01-05T05:59:15.599Z,1018.35
2017-01-05T06:00:24.597Z,1018.36
2017-01-05T06:01:33.568Z,1018.37
2017-01-05T06:02:42.580Z,1018.43
2017-01-05T06:03:51.564Z,1018.43
2017-01-05T06:05:01.936Z,1018.45
2017-01-05T06:06:10.932Z,1018.49
2017-01-05T06:07:19.933Z,1018.49
2017-01-05T06:08:28.903Z,1018.52
2017-01-05T06:09:37.875Z,1018.6
2017-01-05T06:10:46.861Z,1018.64
2017-01-05T06:11:55.823Z,1018.61
2017-01-05T06:13:04.807Z,1018.61
2017-01-05T06:14:13.772Z,1018.61
2017-01-05T06:15:22.781Z,1018.68
2017-01-05T06:16:31.771Z,1018.65
2017-01-05T06:17:40.737Z,1018.65
2017-01-05T06:18:49.708Z,1018.73
2017-01-05T06:19:58.734Z,1018.78
2017-01-05T06:21:07.709Z,1018.8
2017-01-05T06:22:16.679Z,1018.88
2017-01-05T06:23:25.651Z,1018.83
2017-01-05T06:24:34.643Z,1018.82
2017-01-05T06:25:43.632Z,1018.85
2017-01-05T06:26:52.622Z,1018.88
2017-01-05T06:28:01.599Z,1018.93
2017-01-05T06:29:10.576Z,1018.93
2017-01-05T06:30:19.561Z,1018.95
2017-01-05T06:31:28.536Z,1019
2017-01-05T06:32:37.517Z,1019.05
2017-01-05T06:33:46.491Z,1019.06
2017-01-05T06:34:55.461Z,1019.08
2017-01-05T06:36:04.437Z,1019.13
2017-01-05T06:37:13.401Z,1019.17
2017-01-05T06:38:22.385Z,1019.2
2017-01-05T06:39:31.350Z,1019.2
2017-01-05T06:40:40.317Z,1019.24
2017-01-05T06:41:49.292Z,1019.22
2017-01-05T06:42:58.265Z,1019.29
2017-01-05T06:44:07.248Z,1019.33
2017-01-05T06:45:16.226Z,1019.36
2017-01-05T06:46:25.198Z,1019.42
2017-01-05T06:47:34.190Z,1019.42
2017-01-05T06:48:43.161Z,1019.46
2017-01-05T06:49:52.167Z,1019.49
2017-01-05T06:51:01.141Z,1019.53
2017-01-05T06:52:10.137Z,1019.54
2017-01-05T06:53:19.102Z,1019.6
2017-01-05T06:54:28.324Z,1019.67
2017-01-05T06:55:37.302Z,1019.71
2017-01-05T06:56:46.277Z,1019.7
2017-01-05T06:57:55.241Z,1019.74
2017-01-05T06:59:04.213Z,1019.7
2017-01-05T07:00:13.192Z,1019.8
2017-01-05T07:01:22.166Z,1019.77
2017-01-05T07:02:31.150Z,1019.85
2017-01-05T07:03:40.155Z,1019.88
2017-01-05T07:04:49.128Z,1019.84
2017-01-05T07:05:58.113Z,1019.92
2017-01-05T07:07:07.082Z,1019.92
2017-01-05T07:08:16.079Z,1019.92
2017-01-05T07:09:25.048Z,1019.98
2017-01-05T07:10:34.019Z,1020.03
2017-01-05T07:11:43.007Z,1020.06
2017-01-05T07:12:51.990Z,1020.08
2017-01-05T07:14:00.970Z,1020.12
2017-01-05T07:15:09.934Z,1020.17
2017-01-05T07:16:18.912Z,1020.18
2017-01-05T07:17:27.881Z,1020.27
2017-01-05T07:18:36.848Z,1020.32
2017-01-05T07:19:45.840Z,1020.38
2017-01-05T07:20:54.809Z,1020.45
2017-01-05T07:22:03.785Z,1020.44
2017-01-05T07:23:12.757Z,1020.49
2017-01-05T07:24:21.745Z,1020.56
2017-01-05T07:25:30.720Z,1020.52
2017-01-05T07:26:39.734Z,1020.53
2017-01-05T07:27:48.701Z,1020.62
2017-01-05T07:28:57.669Z,1020.61
2017-01-05T07:30:06.729Z,1020.64
2017-01-05T07:31:15.706Z,1020.66
2017-01-05T07:32:25.030Z,1020.67
2017-01-05T07:33:34.010Z,1020.65
2017-01-05T07:34:43.019Z,1020.73
2017-01-05T07:35:51.990Z,1020.71
2017-01-05T07:37:01.010Z,1020.73
2017-01-05T07:38:09.989Z,1020.8
2017-01-05T07:39:18.977Z,1020.83
2017-01-05T07:40:27.961Z,1020.87
2017-01-05T07:41:38.104Z,1020.84
2017-01-05T07:42:47.086Z,1020.85
2017-01-05T07:43:56.270Z,1020.9
2017-01-05T07:45:05.247Z,1020.87
2017-01-05T07:46:14.217Z,1020.92
2017-01-05T07:47:23.219Z,1020.99
2017-01-05T07:48:32.271Z,1021.06
2017-01-05T07:49:41.298Z,1021.07
2017-01-05T07:50:50.280Z,1021.04
2017-01-05T07:51:59.255Z,1021.15
2017-01-05T07:53:08.226Z,1021.13
2017-01-05T07:54:17.199Z,1021.15
2017-01-05T07:55:26.176Z,1021.22
2017-01-05T07:56:35.147Z,1021.21
2017-01-05T07:57:44.119Z,1021.3
2017-01-05T07:58:53.090Z,1021.32
2017-01-05T08:00:02.057Z,1021.38
2017-01-05T08:01:11.049Z,1021.38
2017-01-05T08:02:20.026Z,1021.48
2017-01-05T08:03:29.043Z,1021.51
2017-01-05T08:04:38.014Z,1021.58
2017-01-05T08:05:46.986Z,1021.62
2017-01-05T08:06:55.979Z,1021.63
2017-01-05T08:08:04.968Z,1021.75
2017-01-05T08:09:13.955Z,1021.69
2017-01-05T08:10:22.940Z,1021.76
2017-01-05T08:11:31.919Z,1021.76
2017-01-05T08:12:40.926Z,1021.79
2017-01-05T08:13:50.931Z,1021.79
2017-01-05T08:14:59.921Z,1021.89
2017-01-05T08:16:08.928Z,1021.83
2017-01-05T08:17:17.909Z,1021.91
2017-01-05T08:18:26.907Z,1021.93
2017-01-05T08:19:35.888Z,1021.99
2017-01-05T08:20:44.905Z,1022.02
2017-01-05T08:21:53.887Z,1022.05
2017-01-05T08:23:02.889Z,1022.03
2017-01-05T08:24:11.871Z,1022.04
2017-01-05T08:25:20.860Z,1022.03
2017-01-05T08:26:29.845Z,1022.13
2017-01-05T08:27:38.833Z,1022.16
2017-01-05T08:28:47.820Z,1022.14
2017-01-05T08:29:56.793Z,1022.22
2017-01-05T08:31:05.764Z,1022.21
2017-01-05T08:32:14.742Z,1022.25
2017-01-05T08:33:23.744Z,1022.29
2017-01-05T08:34:32.744Z,1022.36
2017-01-05T08:35:41.720Z,1022.41
2017-01-05T08:36:50.706Z,1022.43
2017-01-05T08:37:59.677Z,1022.46
2017-01-05T08:39:08.659Z,1022.51
2017-01-05T08:40:17.626Z,1022.5
2017-01-05T08:41:26.613Z,1022.56
2017-01-05T08:42:35.595Z,1022.56
2017-01-05T08:43:44.558Z,1022.61
2017-01-05T08:44:53.537Z,1022.65
2017-01-05T08:46:02.530Z,1022.72
2017-01-05T08:47:11.521Z,1022.71
2017-01-05T08:48:20.538Z,1022.76
2017-01-05T08:49:29.514Z,1022.78
2017-01-05T08:50:38.492Z,1022.81
2017-01-05T08:51:47.465Z,1022.82
2017-01-05T08:52:56.450Z,1022.81
2017-01-05T08:54:05.423Z,1022.81
2017-01-05T08:55:14.400Z,1022.88
2017-01-05T08:56:23.377Z,1022.89
2017-01-05T08:57:32.369Z,1022.98
2017-01-05T08:58:41.355Z,1022.97
2017-01-05T08:59:50.328Z,1023.08
2017-01-05T09:00:59.299Z,1023.11
2017-01-05T09:02:08.284Z,1023.14
2017-01-05T09:03:17.267Z,1023.16
2017-01-05T09:04:26.249Z,1023.14
2017-01-05T09:05:35.217Z,1023.14
2017-01-05T09:06:44.202Z,1023.18
2017-01-05T09:07:53.180Z,1023.22
2017-01-05T09:09:02.158Z,1023.22
2017-01-05T09:10:11.134Z,1023.24
2017-01-05T09:11:20.544Z,1023.28
2017-01-05T09:12:29.516Z,1023.32
2017-01-05T09:13:38.492Z,1023.3
2017-01-05T09:14:47.480Z,1023.36
2017-01-05T09:15:56.450Z,1023.37
2017-01-05T09:17:05.441Z,1023.41
2017-01-05T09:18:14.413Z,1023.4
2017-01-05T09:19:23.379Z,1023.43
2017-01-05T09:20:32.382Z,1023.49
2017-01-05T09:21:41.368Z,1023.48
2017-01-05T09:22:50.340Z,1023.46
2017-01-05T09:23:59.327Z,1023.47
2017-01-05T09:25:08.302Z,1023.49
2017-01-05T09:26:17.282Z,1023.52
2017-01-05T09:27:26.270Z,1023.5
2017-01-05T09:28:35.251Z,1023.49
2017-01-05T09:29:44.236Z,1023.5
2017-01-05T09:30:53.209Z,1023.52
2017-01-05T09:32:02.189Z,1023.53
2017-01-05T09:33:11.218Z,1023.54
2017-01-05T09:34:20.190Z,1023.58
2017-01-05T09:35:29.171Z,1023.57
2017-01-05T09:36:38.141Z,1023.6
2017-01-05T09:37:47.128Z,1023.6
2017-01-05T09:38:56.097Z,1023.65
2017-01-05T09:40:05.090Z,1023.62
2017-01-05T09:41:14.059Z,1023.65
2017-01-05T09:42:23.039Z,1023.75
2017-01-05T09:43:32.009Z,1023.72
2017-01-05T09:48:52.033Z,1023.97
2017-01-05T09:50:01.051Z,1023.99
2017-01-05T09:51:10.025Z,1023.97
2017-01-05T09:52:19.007Z,1023.99
2017-01-05T09:53:27.979Z,1024.06
2017-01-05T09:54:36.972Z,1024.05
2017-01-05T09:55:45.936Z,1024.04
2017-01-05T09:56:54.920Z,1024.07
2017-01-05T09:58:03.900Z,1024.09
2017-01-05T09:59:12.883Z,1024.09
2017-01-05T10:00:21.865Z,1024.12
2017-01-05T10:01:30.833Z,1024.13
2017-01-05T10:02:39.812Z,1024.15
2017-01-05T10:03:48.784Z,1024.17
2017-01-05T10:04:57.777Z,1024.19
2017-01-05T10:06:06.764Z,1024.23
2017-01-05T10:07:15.751Z,1024.21
2017-01-05T10:08:24.726Z,1024.25
2017-01-05T10:09:33.693Z,1024.21
2017-01-05T10:10:42.679Z,1024.24
2017-01-05T10:11:51.654Z,1024.26
2017-01-05T10:13:00.634Z,1024.24
2017-01-05T10:14:09.612Z,1024.31
2017-01-05T10:15:18.585Z,1024.28
2017-01-05T10:16:27.571Z,1024.26
2017-01-05T10:17:36.555Z,1024.32
2017-01-05T10:18:45.544Z,1024.3
2017-01-05T10:19:54.506Z,1024.34
2017-01-05T10:21:03.492Z,1024.34
2017-01-05T10:22:12.484Z,1024.34
2017-01-05T10:23:21.463Z,1024.39
2017-01-05T10:24:30.448Z,1024.39
2017-01-05T10:25:39.434Z,1024.36
2017-01-05T10:26:48.412Z,1024.4
2017-01-05T10:27:57.385Z,1024.41
2017-01-05T10:29:06.390Z,1024.4
2017-01-05T10:30:15.366Z,1024.45
2017-01-05T10:31:24.377Z,1024.44
2017-01-05T10:32:33.362Z,1024.47
2017-01-05T10:33:42.337Z,1024.51
2017-01-05T10:34:51.319Z,1024.49
2017-01-05T10:36:00.291Z,1024.49
2017-01-05T10:37:09.274Z,1024.49
2017-01-05T10:38:18.240Z,1024.52
2017-01-05T10:39:27.252Z,1024.56
2017-01-05T10:40:36.211Z,1024.54
2017-01-05T10:41:45.190Z,1024.57
2017-01-05T10:42:54.197Z,1024.6
2017-01-05T10:44:03.178Z,1024.61
2017-01-05T10:45:12.150Z,1024.63
2017-01-05T10:46:21.123Z,1024.69
2017-01-05T10:47:30.094Z,1024.67
2017-01-05T10:48:39.063Z,1024.72
2017-01-05T10:49:48.049Z,1024.75
2017-01-05T10:50:57.012Z,1024.74
2017-01-05T10:52:06.010Z,1024.82
2017-01-05T10:53:14.987Z,1024.78
2017-01-05T10:54:23.961Z,1024.85
2017-01-05T10:55:32.935Z,1024.9
2017-01-05T10:56:41.907Z,1024.89
2017-01-05T10:57:50.893Z,1024.87
2017-01-05T10:58:59.877Z,1024.89
2017-01-05T11:00:08.860Z,1024.91
2017-01-05T11:01:17.823Z,1024.92
2017-01-05T11:02:26.796Z,1024.98
2017-01-05T11:03:35.774Z,1024.96
2017-01-05T11:04:44.756Z,1024.98
2017-01-05T11:05:53.735Z,1024.97
2017-01-05T11:07:02.715Z,1024.96
2017-01-05T11:08:11.700Z,1025.05
2017-01-05T11:09:20.693Z,1025.07
2017-01-05T11:10:29.664Z,1025.09
2017-01-05T11:11:38.660Z,1025.15
2017-01-05T11:12:47.632Z,1025.11
2017-01-05T11:13:56.611Z,1025.14
2017-01-05T11:15:05.584Z,1025.12
2017-01-05T11:16:14.558Z,1025.16
2017-01-05T11:17:23.526Z,1025.14
2017-01-05T11:18:32.513Z,1025.18
2017-01-05T11:19:41.490Z,1025.08
2017-01-05T11:20:50.471Z,1025.11
2017-01-05T11:21:59.478Z,1025.14
2017-01-05T11:23:08.852Z,1025.11
2017-01-05T11:24:17.851Z,1025.16
2017-01-05T11:25:26.839Z,1025.16
2017-01-05T11:26:35.806Z,1025.15
2017-01-05T11:27:44.791Z,1025.12
2017-01-05T11:28:53.763Z,1025.12
2017-01-05T11:30:02.734Z,1025.11
2017-01-05T11:31:11.711Z,1025.12
2017-01-05T11:32:20.695Z,1025.12
2017-01-05T11:33:29.659Z,1025.11
2017-01-05T11:34:38.638Z,1025.15
2017-01-05T11:35:47.608Z,1025.21
2017-01-05T11:36:56.591Z,1025.14
2017-01-05T11:38:05.570Z,1025.23
2017-01-05T11:39:14.545Z,1025.25
2017-01-05T11:40:23.552Z,1025.26
2017-01-05T11:41:32.536Z,1025.24
2017-01-05T11:42:41.519Z,1025.31
2017-01-05T11:43:50.506Z,1025.33
2017-01-05T11:44:59.499Z,1025.33
2017-01-05T11:46:08.477Z,1025.37
2017-01-05T11:47:17.467Z,1025.34
2017-01-05T11:48:26.462Z,1025.37
2017-01-05T11:49:35.439Z,1025.34
2017-01-05T11:50:44.419Z,1025.33
2017-01-05T11:51:53.393Z,1025.29
2017-01-05T11:53:02.378Z,1025.38
2017-01-05T11:54:11.365Z,1025.37
2017-01-05T11:55:20.348Z,1025.38
2017-01-05T11:56:29.313Z,1025.43
2017-01-05T11:57:38.327Z,1025.4
2017-01-05T11:58:47.301Z,1025.48
2017-01-05T11:59:56.283Z,1025.51
2017-01-05T12:01:05.256Z,1025.5
2017-01-05T12:02:14.235Z,1025.51
2017-01-05T12:03:23.207Z,1025.58
2017-01-05T12:04:32.185Z,1025.58
2017-01-05T12:05:41.166Z,1025.62
2017-01-05T12:06:50.138Z,1025.67
2017-01-05T12:07:59.113Z,1025.68
2017-01-05T12:09:08.115Z,1025.73
2017-01-05T12:10:17.096Z,1025.69
2017-01-05T12:11:26.075Z,1025.71
2017-01-05T12:12:35.058Z,1025.73
2017-01-05T12:13:44.026Z,1025.71
2017-01-05T12:14:53.009Z,1025.71
2017-01-05T12:16:01.999Z,1025.76
2017-01-05T12:17:10.982Z,1025.74
2017-01-05T12:18:19.959Z,1025.76
2017-01-05T12:19:28.937Z,1025.72
2017-01-05T12:20:37.912Z,1025.77
2017-01-05T12:21:46.889Z,1025.75
2017-01-05T12:22:55.876Z,1025.77
2017-01-05T12:24:04.848Z,1025.82
2017-01-05T12:25:13.816Z,1025.92
2017-01-05T12:26:22.799Z,1025.83
2017-01-05T12:27:31.774Z,1025.87
2017-01-05T12:28:40.767Z,1025.9
2017-01-05T12:29:49.747Z,1025.98
2017-01-05T12:30:58.710Z,1026.01
2017-01-05T12:32:07.694Z,1026.02
2017-01-05T12:33:16.676Z,1026.06
2017-01-05T12:34:25.642Z,1026.04
2017-01-05T12:35:34.622Z,1026.09
2017-01-05T12:36:43.605Z,1026.08
2017-01-05T12:37:52.575Z,1026.12
2017-01-05T12:39:01.588Z,1026.1
2017-01-05T12:40:10.577Z,1026.13
2017-01-05T12:41:19.546Z,1026.15
2017-01-05T12:42:28.522Z,1026.13
2017-01-05T12:43:37.494Z,1026.2
2017-01-05T12:44:46.476Z,1026.27
2017-01-05T12:45:55.442Z,1026.24
2017-01-05T12:47:04.419Z,1026.25
2017-01-05T12:48:13.397Z,1026.34
2017-01-05T12:49:22.367Z,1026.36
2017-01-05T12:50:31.342Z,1026.34
2017-01-05T12:51:40.310Z,1026.42
2017-01-05T12:52:49.296Z,1026.49
2017-01-05T12:53:58.277Z,1026.55
2017-01-05T12:55:07.267Z,1026.49
2017-01-05T12:56:16.227Z,1026.58
2017-01-05T12:57:25.210Z,1026.53
2017-01-05T12:58:34.176Z,1026.52
2017-01-05T12:59:43.163Z,1026.55
2017-01-05T13:00:52.143Z,1026.63
2017-01-05T13:02:01.131Z,1026.62
2017-01-05T13:03:10.106Z,1026.64
2017-01-05T13:04:19.092Z,1026.7
2017-01-05T13:05:28.071Z,1026.77
2017-01-05T13:06:37.045Z,1026.8
2017-01-05T13:07:46.030Z,1026.79
2017-01-05T13:08:55.004Z,1026.82
2017-01-05T13:10:04.001Z,1026.84
2017-01-05T13:11:12.981Z,1026.81
2017-01-05T13:12:21.952Z,1026.86
2017-01-05T13:13:30.933Z,1026.87
2017-01-05T13:14:39.909Z,1026.89
2017-01-05T13:15:48.883Z,1026.91
2017-01-05T13:16:57.854Z,1026.96
2017-01-05T13:18:06.841Z,1026.94
2017-01-05T13:19:15.816Z,1026.99
2017-01-05T13:20:24.817Z,1027.02
2017-01-05T13:21:33.791Z,1027.07
2017-01-05T13:22:42.764Z,1027.09
2017-01-05T13:23:51.743Z,1027.02
2017-01-05T13:25:00.745Z,1027.08
2017-01-05T13:26:09.726Z,1027.11
2017-01-05T13:27:18.687Z,1027.04
2017-01-05T13:28:27.666Z,1027.11
2017-01-05T13:29:36.653Z,1027.11
2017-01-05T13:30:45.623Z,1027.15
2017-01-05T13:31:54.628Z,1027.12
2017-01-05T13:33:03.606Z,1027.15
2017-01-05T13:34:12.587Z,1027.16
2017-01-05T13:35:21.572Z,1027.14
2017-01-05T13:36:30.555Z,1027.23
2017-01-05T13:37:39.528Z,1027.22
2017-01-05T13:38:48.495Z,1027.24
2017-01-05T13:39:57.488Z,1027.26
2017-01-05T13:41:06.457Z,1027.25
2017-01-05T13:42:15.452Z,1027.23
2017-01-05T13:43:24.423Z,1027.27
2017-01-05T13:44:33.405Z,1027.32
2017-01-05T13:45:42.368Z,1027.38
2017-01-05T13:46:51.350Z,1027.4
2017-01-05T13:48:00.326Z,1027.52
2017-01-05T13:49:09.319Z,1027.49
2017-01-05T13:50:18.298Z,1027.5
2017-01-05T13:51:27.285Z,1027.53
2017-01-05T13:52:36.261Z,1027.58
2017-01-05T13:53:45.236Z,1027.59
2017-01-05T13:54:54.210Z,1027.59
2017-01-05T13:56:03.197Z,1027.66
2017-01-05T13:57:12.189Z,1027.63
2017-01-05T13:58:21.151Z,1027.68
2017-01-05T13:59:30.126Z,1027.76
2017-01-05T14:00:39.121Z,1027.77